sensor_id;sensor_type;location;lat;lon;timestamp;P1;durP1;ratioP1;P2;durP2;ratioP2
21777;SDS011;11050;52.222;20.916;2024-03-02T00:00:50;60.40;;;30.30;;
21777;SDS011;11050;52.222;20.916;2024-03-02T00:03:17;56.67;;;31.13;;
21777;SDS011;11050;52.222;20.916;2024-03-02T00:05:44;59.53;;;31.57;;
21777;SDS011;11050;52.222;20.916;2024-03-02T00:08:16;56.33;;;30.57;;
21777;SDS011;11050;52.222;20.916;2024-03-02T00:10:53;55.13;;;31.57;;
21777;SDS011;11050;52.222;20.916;2024-03-02T00:13:23;58.63;;;30.97;;
21777;SDS011;11050;52.222;20.916;2024-03-02T00:15:53;56.30;;;28.93;;
21777;SDS011;11050;52.222;20.916;2024-03-02T00:18:23;56.73;;;30.60;;
21777;SDS011;11050;52.222;20.916;2024-03-02T00:20:56;58.07;;;30.33;;
21777;SDS011;11050;52.222;20.916;2024-03-02T00:23:23;53.60;;;31.13;;
21777;SDS011;11050;52.222;20.916;2024-03-02T00:25:53;52.43;;;28.87;;
21777;SDS011;11050;52.222;20.916;2024-03-02T00:28:24;54.53;;;29.20;;
21777;SDS011;11050;52.222;20.916;2024-03-02T00:33:21;60.00;;;30.63;;
21777;SDS011;11050;52.222;20.916;2024-03-02T00:35:49;53.03;;;29.30;;
21777;SDS011;11050;52.222;20.916;2024-03-02T00:38:15;57.13;;;30.83;;
21777;SDS011;11050;52.222;20.916;2024-03-02T00:40:42;55.77;;;28.90;;
21777;SDS011;11050;52.222;20.916;2024-03-02T00:45:58;58.17;;;31.40;;
21777;SDS011;11050;52.222;20.916;2024-03-02T00:48:24;53.00;;;29.40;;
21777;SDS011;11050;52.222;20.916;2024-03-02T00:50:52;56.70;;;30.47;;
21777;SDS011;11050;52.222;20.916;2024-03-02T00:53:18;53.37;;;29.53;;
21777;SDS011;11050;52.222;20.916;2024-03-02T00:55:51;53.20;;;30.80;;
21777;SDS011;11050;52.222;20.916;2024-03-02T00:58:17;53.80;;;28.53;;
21777;SDS011;11050;52.222;20.916;2024-03-02T01:00:43;53.63;;;28.50;;
21777;SDS011;11050;52.222;20.916;2024-03-02T01:03:09;54.50;;;29.07;;
21777;SDS011;11050;52.222;20.916;2024-03-02T01:05:35;55.33;;;29.40;;
21777;SDS011;11050;52.222;20.916;2024-03-02T01:08:02;50.67;;;28.00;;
21777;SDS011;11050;52.222;20.916;2024-03-02T01:10:28;54.73;;;29.33;;
21777;SDS011;11050;52.222;20.916;2024-03-02T01:12:53;54.37;;;29.30;;
21777;SDS011;11050;52.222;20.916;2024-03-02T01:15:19;57.07;;;31.53;;
21777;SDS011;11050;52.222;20.916;2024-03-02T01:17:45;51.80;;;28.63;;
21777;SDS011;11050;52.222;20.916;2024-03-02T01:20:11;56.73;;;29.80;;
21777;SDS011;11050;52.222;20.916;2024-03-02T01:22:37;53.57;;;30.27;;
21777;SDS011;11050;52.222;20.916;2024-03-02T01:25:03;60.70;;;29.80;;
21777;SDS011;11050;52.222;20.916;2024-03-02T01:27:29;55.00;;;28.73;;
21777;SDS011;11050;52.222;20.916;2024-03-02T01:29:55;54.40;;;30.77;;
21777;SDS011;11050;52.222;20.916;2024-03-02T01:32:20;56.43;;;29.53;;
21777;SDS011;11050;52.222;20.916;2024-03-02T01:34:47;49.50;;;27.63;;
21777;SDS011;11050;52.222;20.916;2024-03-02T01:37:12;58.00;;;31.47;;
21777;SDS011;11050;52.222;20.916;2024-03-02T01:39:38;51.93;;;28.97;;
21777;SDS011;11050;52.222;20.916;2024-03-02T01:42:04;56.40;;;30.33;;
21777;SDS011;11050;52.222;20.916;2024-03-02T01:44:30;54.87;;;31.00;;
21777;SDS011;11050;52.222;20.916;2024-03-02T01:46:56;55.93;;;29.87;;
21777;SDS011;11050;52.222;20.916;2024-03-02T01:49:22;57.50;;;30.57;;
21777;SDS011;11050;52.222;20.916;2024-03-02T01:51:48;60.33;;;31.67;;
21777;SDS011;11050;52.222;20.916;2024-03-02T01:54:13;57.80;;;30.13;;
21777;SDS011;11050;52.222;20.916;2024-03-02T01:56:39;57.73;;;30.87;;
21777;SDS011;11050;52.222;20.916;2024-03-02T01:59:05;56.70;;;30.53;;
21777;SDS011;11050;52.222;20.916;2024-03-02T02:01:31;56.93;;;30.07;;
21777;SDS011;11050;52.222;20.916;2024-03-02T02:03:57;55.53;;;28.93;;
21777;SDS011;11050;52.222;20.916;2024-03-02T02:06:23;57.63;;;29.83;;
21777;SDS011;11050;52.222;20.916;2024-03-02T02:08:49;58.23;;;30.23;;
21777;SDS011;11050;52.222;20.916;2024-03-02T02:11:15;59.57;;;29.73;;
21777;SDS011;11050;52.222;20.916;2024-03-02T02:13:42;59.70;;;30.87;;
21777;SDS011;11050;52.222;20.916;2024-03-02T02:16:07;55.37;;;29.97;;
21777;SDS011;11050;52.222;20.916;2024-03-02T02:18:34;56.83;;;29.27;;
21777;SDS011;11050;52.222;20.916;2024-03-02T02:21:01;52.77;;;28.63;;
21777;SDS011;11050;52.222;20.916;2024-03-02T02:23:27;53.30;;;28.33;;
21777;SDS011;11050;52.222;20.916;2024-03-02T02:25:53;52.50;;;28.23;;
21777;SDS011;11050;52.222;20.916;2024-03-02T02:28:19;56.17;;;28.47;;
21777;SDS011;11050;52.222;20.916;2024-03-02T02:30:45;55.27;;;30.37;;
21777;SDS011;11050;52.222;20.916;2024-03-02T02:33:11;55.10;;;30.23;;
21777;SDS011;11050;52.222;20.916;2024-03-02T02:35:37;61.03;;;30.83;;
21777;SDS011;11050;52.222;20.916;2024-03-02T02:38:03;53.63;;;29.50;;
21777;SDS011;11050;52.222;20.916;2024-03-02T02:40:29;53.90;;;27.53;;
21777;SDS011;11050;52.222;20.916;2024-03-02T02:42:56;52.97;;;29.97;;
21777;SDS011;11050;52.222;20.916;2024-03-02T02:45:22;54.63;;;28.60;;
21777;SDS011;11050;52.222;20.916;2024-03-02T02:47:48;53.87;;;29.17;;
21777;SDS011;11050;52.222;20.916;2024-03-02T02:50:13;54.07;;;28.83;;
21777;SDS011;11050;52.222;20.916;2024-03-02T02:52:40;55.83;;;30.70;;
21777;SDS011;11050;52.222;20.916;2024-03-02T02:55:08;57.67;;;30.03;;
21777;SDS011;11050;52.222;20.916;2024-03-02T02:57:39;60.60;;;30.40;;
21777;SDS011;11050;52.222;20.916;2024-03-02T03:00:08;56.50;;;29.73;;
21777;SDS011;11050;52.222;20.916;2024-03-02T03:02:42;54.77;;;28.30;;
21777;SDS011;11050;52.222;20.916;2024-03-02T03:05:10;54.77;;;28.53;;
21777;SDS011;11050;52.222;20.916;2024-03-02T03:07:39;53.60;;;29.23;;
21777;SDS011;11050;52.222;20.916;2024-03-02T03:10:06;56.37;;;30.40;;
21777;SDS011;11050;52.222;20.916;2024-03-02T03:12:33;58.17;;;28.73;;
21777;SDS011;11050;52.222;20.916;2024-03-02T03:15:00;55.30;;;29.43;;
21777;SDS011;11050;52.222;20.916;2024-03-02T03:17:28;53.80;;;28.60;;
21777;SDS011;11050;52.222;20.916;2024-03-02T03:19:53;55.50;;;29.40;;
21777;SDS011;11050;52.222;20.916;2024-03-02T03:22:20;51.33;;;28.47;;
21777;SDS011;11050;52.222;20.916;2024-03-02T03:24:45;50.53;;;27.33;;
21777;SDS011;11050;52.222;20.916;2024-03-02T03:27:11;50.13;;;27.67;;
21777;SDS011;11050;52.222;20.916;2024-03-02T03:29:37;53.77;;;28.53;;
21777;SDS011;11050;52.222;20.916;2024-03-02T03:32:03;51.20;;;27.57;;
21777;SDS011;11050;52.222;20.916;2024-03-02T03:34:32;51.00;;;27.93;;
21777;SDS011;11050;52.222;20.916;2024-03-02T03:36:58;52.50;;;27.57;;
21777;SDS011;11050;52.222;20.916;2024-03-02T03:39:24;52.60;;;27.17;;
21777;SDS011;11050;52.222;20.916;2024-03-02T03:41:50;53.13;;;26.97;;
21777;SDS011;11050;52.222;20.916;2024-03-02T03:44:16;50.77;;;27.23;;
21777;SDS011;11050;52.222;20.916;2024-03-02T03:46:41;55.20;;;28.63;;
21777;SDS011;11050;52.222;20.916;2024-03-02T03:49:07;49.57;;;26.83;;
21777;SDS011;11050;52.222;20.916;2024-03-02T03:51:33;50.57;;;26.20;;
21777;SDS011;11050;52.222;20.916;2024-03-02T03:53:59;50.63;;;27.73;;
21777;SDS011;11050;52.222;20.916;2024-03-02T03:56:24;51.67;;;27.20;;
21777;SDS011;11050;52.222;20.916;2024-03-02T03:58:50;49.00;;;27.70;;
21777;SDS011;11050;52.222;20.916;2024-03-02T04:01:16;53.07;;;26.60;;
21777;SDS011;11050;52.222;20.916;2024-03-02T04:03:42;55.73;;;27.83;;
21777;SDS011;11050;52.222;20.916;2024-03-02T04:06:07;48.80;;;27.43;;
21777;SDS011;11050;52.222;20.916;2024-03-02T04:08:33;51.57;;;27.03;;
21777;SDS011;11050;52.222;20.916;2024-03-02T04:10:58;51.93;;;27.33;;
21777;SDS011;11050;52.222;20.916;2024-03-02T04:13:24;53.87;;;27.37;;
21777;SDS011;11050;52.222;20.916;2024-03-02T04:15:50;52.83;;;26.87;;
21777;SDS011;11050;52.222;20.916;2024-03-02T04:18:16;52.83;;;26.83;;
21777;SDS011;11050;52.222;20.916;2024-03-02T04:20:41;54.43;;;27.63;;
21777;SDS011;11050;52.222;20.916;2024-03-02T04:23:07;55.43;;;26.90;;
21777;SDS011;11050;52.222;20.916;2024-03-02T04:25:33;51.30;;;27.70;;
21777;SDS011;11050;52.222;20.916;2024-03-02T04:27:59;52.90;;;26.97;;
21777;SDS011;11050;52.222;20.916;2024-03-02T04:30:24;57.37;;;29.30;;
21777;SDS011;11050;52.222;20.916;2024-03-02T04:32:50;54.93;;;29.17;;
21777;SDS011;11050;52.222;20.916;2024-03-02T04:35:16;51.47;;;27.47;;
21777;SDS011;11050;52.222;20.916;2024-03-02T04:37:41;48.90;;;26.57;;
21777;SDS011;11050;52.222;20.916;2024-03-02T04:40:07;53.00;;;27.83;;
21777;SDS011;11050;52.222;20.916;2024-03-02T04:42:34;57.93;;;28.97;;
21777;SDS011;11050;52.222;20.916;2024-03-02T04:45:00;57.33;;;28.00;;
21777;SDS011;11050;52.222;20.916;2024-03-02T04:47:27;52.70;;;27.07;;
21777;SDS011;11050;52.222;20.916;2024-03-02T04:49:52;49.17;;;26.83;;
21777;SDS011;11050;52.222;20.916;2024-03-02T04:52:18;56.83;;;28.00;;
21777;SDS011;11050;52.222;20.916;2024-03-02T04:54:44;52.00;;;26.90;;
21777;SDS011;11050;52.222;20.916;2024-03-02T04:57:28;61.07;;;28.00;;
21777;SDS011;11050;52.222;20.916;2024-03-02T04:59:54;54.70;;;27.73;;
21777;SDS011;11050;52.222;20.916;2024-03-02T05:02:19;56.33;;;28.47;;
21777;SDS011;11050;52.222;20.916;2024-03-02T05:04:45;51.43;;;26.40;;
21777;SDS011;11050;52.222;20.916;2024-03-02T05:07:13;55.40;;;26.87;;
21777;SDS011;11050;52.222;20.916;2024-03-02T05:09:39;55.67;;;27.40;;
21777;SDS011;11050;52.222;20.916;2024-03-02T05:12:05;52.07;;;25.77;;
21777;SDS011;11050;52.222;20.916;2024-03-02T05:14:34;48.60;;;26.93;;
21777;SDS011;11050;52.222;20.916;2024-03-02T05:16:59;50.67;;;25.30;;
21777;SDS011;11050;52.222;20.916;2024-03-02T05:19:25;51.40;;;26.33;;
21777;SDS011;11050;52.222;20.916;2024-03-02T05:21:51;53.90;;;26.83;;
21777;SDS011;11050;52.222;20.916;2024-03-02T05:24:16;48.87;;;25.00;;
21777;SDS011;11050;52.222;20.916;2024-03-02T05:26:42;54.93;;;26.70;;
21777;SDS011;11050;52.222;20.916;2024-03-02T05:29:08;54.03;;;24.93;;
21777;SDS011;11050;52.222;20.916;2024-03-02T05:31:34;52.60;;;24.93;;
21777;SDS011;11050;52.222;20.916;2024-03-02T05:34:00;51.83;;;25.57;;
21777;SDS011;11050;52.222;20.916;2024-03-02T05:36:26;51.43;;;26.23;;
21777;SDS011;11050;52.222;20.916;2024-03-02T05:38:51;48.30;;;25.77;;
21777;SDS011;11050;52.222;20.916;2024-03-02T05:41:18;53.63;;;26.93;;
21777;SDS011;11050;52.222;20.916;2024-03-02T05:43:43;51.70;;;25.27;;
21777;SDS011;11050;52.222;20.916;2024-03-02T05:46:09;53.70;;;26.43;;
21777;SDS011;11050;52.222;20.916;2024-03-02T05:48:35;50.70;;;24.97;;
21777;SDS011;11050;52.222;20.916;2024-03-02T05:51:00;52.40;;;24.57;;
21777;SDS011;11050;52.222;20.916;2024-03-02T05:53:26;49.13;;;25.87;;
21777;SDS011;11050;52.222;20.916;2024-03-02T05:55:52;48.37;;;25.67;;
21777;SDS011;11050;52.222;20.916;2024-03-02T05:58:20;50.17;;;25.07;;
21777;SDS011;11050;52.222;20.916;2024-03-02T06:01:13;48.43;;;24.37;;
21777;SDS011;11050;52.222;20.916;2024-03-02T06:03:38;48.73;;;25.40;;
21777;SDS011;11050;52.222;20.916;2024-03-02T06:06:04;46.50;;;25.13;;
21777;SDS011;11050;52.222;20.916;2024-03-02T06:08:30;51.93;;;24.93;;
21777;SDS011;11050;52.222;20.916;2024-03-02T06:10:56;56.27;;;25.60;;
21777;SDS011;11050;52.222;20.916;2024-03-02T06:13:22;45.93;;;24.43;;
21777;SDS011;11050;52.222;20.916;2024-03-02T06:15:48;49.37;;;23.97;;
21777;SDS011;11050;52.222;20.916;2024-03-02T06:18:13;47.20;;;24.90;;
21777;SDS011;11050;52.222;20.916;2024-03-02T06:20:39;48.77;;;24.30;;
21777;SDS011;11050;52.222;20.916;2024-03-02T06:23:05;47.20;;;23.67;;
21777;SDS011;11050;52.222;20.916;2024-03-02T06:25:31;47.23;;;24.77;;
21777;SDS011;11050;52.222;20.916;2024-03-02T06:27:57;47.80;;;25.70;;
21777;SDS011;11050;52.222;20.916;2024-03-02T06:30:23;48.93;;;24.77;;
21777;SDS011;11050;52.222;20.916;2024-03-02T06:32:49;46.77;;;25.07;;
21777;SDS011;11050;52.222;20.916;2024-03-02T06:35:14;39.50;;;23.07;;
21777;SDS011;11050;52.222;20.916;2024-03-02T06:37:40;45.80;;;24.53;;
21777;SDS011;11050;52.222;20.916;2024-03-02T06:40:06;43.70;;;23.43;;
21777;SDS011;11050;52.222;20.916;2024-03-02T06:42:33;45.10;;;24.33;;
21777;SDS011;11050;52.222;20.916;2024-03-02T06:45:00;40.30;;;23.00;;
21777;SDS011;11050;52.222;20.916;2024-03-02T06:47:26;46.70;;;23.07;;
21777;SDS011;11050;52.222;20.916;2024-03-02T06:49:52;46.77;;;23.73;;
21777;SDS011;11050;52.222;20.916;2024-03-02T06:52:18;42.80;;;22.63;;
21777;SDS011;11050;52.222;20.916;2024-03-02T06:54:45;45.83;;;23.10;;
21777;SDS011;11050;52.222;20.916;2024-03-02T06:57:11;43.07;;;22.27;;
21777;SDS011;11050;52.222;20.916;2024-03-02T06:59:37;42.80;;;22.77;;
21777;SDS011;11050;52.222;20.916;2024-03-02T07:02:03;45.30;;;22.73;;
21777;SDS011;11050;52.222;20.916;2024-03-02T07:04:28;44.97;;;22.67;;
21777;SDS011;11050;52.222;20.916;2024-03-02T07:06:54;40.90;;;22.53;;
21777;SDS011;11050;52.222;20.916;2024-03-02T07:09:20;43.57;;;22.63;;
21777;SDS011;11050;52.222;20.916;2024-03-02T07:11:48;41.53;;;21.90;;
21777;SDS011;11050;52.222;20.916;2024-03-02T07:14:14;41.33;;;22.20;;
21777;SDS011;11050;52.222;20.916;2024-03-02T07:16:40;40.93;;;21.13;;
21777;SDS011;11050;52.222;20.916;2024-03-02T07:19:08;43.90;;;21.60;;
21777;SDS011;11050;52.222;20.916;2024-03-02T07:21:34;41.57;;;22.77;;
21777;SDS011;11050;52.222;20.916;2024-03-02T07:24:00;42.77;;;21.53;;
21777;SDS011;11050;52.222;20.916;2024-03-02T07:26:28;37.57;;;20.93;;
21777;SDS011;11050;52.222;20.916;2024-03-02T07:28:56;42.47;;;20.30;;
21777;SDS011;11050;52.222;20.916;2024-03-02T07:31:22;35.87;;;20.60;;
21777;SDS011;11050;52.222;20.916;2024-03-02T07:33:48;42.70;;;21.37;;
21777;SDS011;11050;52.222;20.916;2024-03-02T07:36:14;37.97;;;20.67;;
21777;SDS011;11050;52.222;20.916;2024-03-02T07:38:40;40.47;;;20.37;;
21777;SDS011;11050;52.222;20.916;2024-03-02T07:41:06;40.03;;;21.10;;
21777;SDS011;11050;52.222;20.916;2024-03-02T07:43:33;35.57;;;19.53;;
21777;SDS011;11050;52.222;20.916;2024-03-02T07:45:59;37.33;;;19.63;;
21777;SDS011;11050;52.222;20.916;2024-03-02T07:48:25;38.67;;;20.30;;
21777;SDS011;11050;52.222;20.916;2024-03-02T07:50:52;39.80;;;20.17;;
21777;SDS011;11050;52.222;20.916;2024-03-02T07:53:17;36.93;;;20.03;;
21777;SDS011;11050;52.222;20.916;2024-03-02T07:55:43;39.60;;;19.90;;
21777;SDS011;11050;52.222;20.916;2024-03-02T07:58:09;44.00;;;21.40;;
21777;SDS011;11050;52.222;20.916;2024-03-02T08:00:36;36.97;;;20.20;;
21777;SDS011;11050;52.222;20.916;2024-03-02T08:03:05;38.90;;;19.27;;
21777;SDS011;11050;52.222;20.916;2024-03-02T08:05:31;37.33;;;21.03;;
21777;SDS011;11050;52.222;20.916;2024-03-02T08:07:57;42.20;;;21.23;;
21777;SDS011;11050;52.222;20.916;2024-03-02T08:10:23;44.50;;;21.80;;
21777;SDS011;11050;52.222;20.916;2024-03-02T08:12:48;35.17;;;19.67;;
21777;SDS011;11050;52.222;20.916;2024-03-02T08:15:14;38.80;;;20.03;;
21777;SDS011;11050;52.222;20.916;2024-03-02T08:17:40;35.83;;;20.20;;
21777;SDS011;11050;52.222;20.916;2024-03-02T08:20:13;36.50;;;19.57;;
21777;SDS011;11050;52.222;20.916;2024-03-02T08:22:39;37.70;;;19.73;;
21777;SDS011;11050;52.222;20.916;2024-03-02T08:25:05;40.50;;;20.53;;
21777;SDS011;11050;52.222;20.916;2024-03-02T08:27:32;40.33;;;21.40;;
21777;SDS011;11050;52.222;20.916;2024-03-02T08:29:58;39.87;;;21.13;;
21777;SDS011;11050;52.222;20.916;2024-03-02T08:32:24;41.50;;;20.70;;
21777;SDS011;11050;52.222;20.916;2024-03-02T08:34:50;36.97;;;21.10;;
21777;SDS011;11050;52.222;20.916;2024-03-02T08:37:15;40.87;;;21.27;;
21777;SDS011;11050;52.222;20.916;2024-03-02T08:39:41;39.47;;;20.30;;
21777;SDS011;11050;52.222;20.916;2024-03-02T08:42:07;39.17;;;20.40;;
21777;SDS011;11050;52.222;20.916;2024-03-02T08:44:33;41.00;;;20.73;;
21777;SDS011;11050;52.222;20.916;2024-03-02T08:46:59;40.70;;;20.60;;
21777;SDS011;11050;52.222;20.916;2024-03-02T08:49:25;39.63;;;20.23;;
21777;SDS011;11050;52.222;20.916;2024-03-02T08:51:50;36.70;;;19.03;;
21777;SDS011;11050;52.222;20.916;2024-03-02T08:54:22;39.80;;;21.30;;
21777;SDS011;11050;52.222;20.916;2024-03-02T08:56:49;36.50;;;21.20;;
21777;SDS011;11050;52.222;20.916;2024-03-02T08:59:15;41.07;;;20.23;;
21777;SDS011;11050;52.222;20.916;2024-03-02T09:01:41;35.90;;;20.37;;
21777;SDS011;11050;52.222;20.916;2024-03-02T09:04:08;44.17;;;21.37;;
21777;SDS011;11050;52.222;20.916;2024-03-02T09:06:34;37.70;;;21.03;;
21777;SDS011;11050;52.222;20.916;2024-03-02T09:09:00;43.83;;;21.83;;
21777;SDS011;11050;52.222;20.916;2024-03-02T09:11:26;43.33;;;20.43;;
21777;SDS011;11050;52.222;20.916;2024-03-02T09:13:52;39.93;;;20.33;;
21777;SDS011;11050;52.222;20.916;2024-03-02T09:16:18;41.47;;;22.17;;
21777;SDS011;11050;52.222;20.916;2024-03-02T09:18:44;39.63;;;20.20;;
21777;SDS011;11050;52.222;20.916;2024-03-02T09:21:10;44.10;;;20.80;;
21777;SDS011;11050;52.222;20.916;2024-03-02T09:23:36;40.57;;;20.23;;
21777;SDS011;11050;52.222;20.916;2024-03-02T09:26:01;39.47;;;20.87;;
21777;SDS011;11050;52.222;20.916;2024-03-02T09:28:28;36.03;;;20.13;;
21777;SDS011;11050;52.222;20.916;2024-03-02T09:30:54;36.80;;;19.70;;
21777;SDS011;11050;52.222;20.916;2024-03-02T09:33:19;31.87;;;19.67;;
21777;SDS011;11050;52.222;20.916;2024-03-02T09:35:45;38.60;;;20.73;;
21777;SDS011;11050;52.222;20.916;2024-03-02T09:38:11;38.77;;;20.70;;
21777;SDS011;11050;52.222;20.916;2024-03-02T09:40:37;41.87;;;21.10;;
21777;SDS011;11050;52.222;20.916;2024-03-02T09:43:03;36.67;;;20.90;;
21777;SDS011;11050;52.222;20.916;2024-03-02T09:45:29;37.83;;;20.77;;
21777;SDS011;11050;52.222;20.916;2024-03-02T09:47:56;38.27;;;20.53;;
21777;SDS011;11050;52.222;20.916;2024-03-02T09:50:22;36.90;;;20.20;;
21777;SDS011;11050;52.222;20.916;2024-03-02T09:52:50;35.23;;;20.17;;
21777;SDS011;11050;52.222;20.916;2024-03-02T09:55:19;38.43;;;20.20;;
21777;SDS011;11050;52.222;20.916;2024-03-02T09:57:46;36.80;;;20.03;;
21777;SDS011;11050;52.222;20.916;2024-03-02T10:00:13;39.63;;;20.67;;
21777;SDS011;11050;52.222;20.916;2024-03-02T10:02:40;44.87;;;22.37;;
21777;SDS011;11050;52.222;20.916;2024-03-02T10:05:07;35.00;;;19.17;;
21777;SDS011;11050;52.222;20.916;2024-03-02T10:07:37;48.27;;;22.03;;
21777;SDS011;11050;52.222;20.916;2024-03-02T10:10:13;35.00;;;19.87;;
21777;SDS011;11050;52.222;20.916;2024-03-02T10:12:40;37.13;;;20.23;;
21777;SDS011;11050;52.222;20.916;2024-03-02T10:15:06;40.03;;;19.17;;
21777;SDS011;11050;52.222;20.916;2024-03-02T10:17:34;36.17;;;19.73;;
21777;SDS011;11050;52.222;20.916;2024-03-02T10:20:04;38.23;;;19.77;;
21777;SDS011;11050;52.222;20.916;2024-03-02T10:23:10;36.53;;;20.33;;
21777;SDS011;11050;52.222;20.916;2024-03-02T10:25:41;38.08;;;18.98;;
21777;SDS011;11050;52.222;20.916;2024-03-02T10:28:08;38.55;;;19.40;;
21777;SDS011;11050;52.222;20.916;2024-03-02T10:30:34;37.70;;;20.63;;
21777;SDS011;11050;52.222;20.916;2024-03-02T10:33:01;37.17;;;19.80;;
21777;SDS011;11050;52.222;20.916;2024-03-02T10:35:28;36.88;;;19.92;;
21777;SDS011;11050;52.222;20.916;2024-03-02T10:37:56;34.45;;;20.30;;
21777;SDS011;11050;52.222;20.916;2024-03-02T10:40:26;35.17;;;18.00;;
21777;SDS011;11050;52.222;20.916;2024-03-02T10:42:52;38.03;;;20.70;;
21777;SDS011;11050;52.222;20.916;2024-03-02T10:45:19;40.05;;;21.67;;
21777;SDS011;11050;52.222;20.916;2024-03-02T10:47:49;32.13;;;19.10;;
21777;SDS011;11050;52.222;20.916;2024-03-02T10:50:16;40.15;;;21.67;;
21777;SDS011;11050;52.222;20.916;2024-03-02T10:52:42;34.40;;;20.20;;
21777;SDS011;11050;52.222;20.916;2024-03-02T10:55:08;35.20;;;20.45;;
21777;SDS011;11050;52.222;20.916;2024-03-02T10:57:53;35.28;;;19.92;;
21777;SDS011;11050;52.222;20.916;2024-03-02T11:00:21;36.53;;;20.13;;
21777;SDS011;11050;52.222;20.916;2024-03-02T11:02:58;33.85;;;20.15;;
21777;SDS011;11050;52.222;20.916;2024-03-02T11:05:36;37.28;;;20.88;;
21777;SDS011;11050;52.222;20.916;2024-03-02T11:08:12;40.13;;;20.10;;
21777;SDS011;11050;52.222;20.916;2024-03-02T11:10:50;32.80;;;20.15;;
21777;SDS011;11050;52.222;20.916;2024-03-02T11:13:22;37.25;;;20.13;;
21777;SDS011;11050;52.222;20.916;2024-03-02T11:15:59;39.10;;;20.73;;
21777;SDS011;11050;52.222;20.916;2024-03-02T11:18:35;43.63;;;21.02;;
21777;SDS011;11050;52.222;20.916;2024-03-02T11:21:02;42.83;;;21.85;;
21777;SDS011;11050;52.222;20.916;2024-03-02T11:23:33;35.22;;;19.40;;
21777;SDS011;11050;52.222;20.916;2024-03-02T11:26:19;39.70;;;23.17;;
21777;SDS011;11050;52.222;20.916;2024-03-02T11:28:46;42.10;;;22.85;;
21777;SDS011;11050;52.222;20.916;2024-03-02T11:31:11;38.97;;;22.10;;
21777;SDS011;11050;52.222;20.916;2024-03-02T11:33:37;39.08;;;21.10;;
21777;SDS011;11050;52.222;20.916;2024-03-02T11:36:03;40.53;;;22.05;;
21777;SDS011;11050;52.222;20.916;2024-03-02T11:38:33;37.72;;;22.83;;
21777;SDS011;11050;52.222;20.916;2024-03-02T11:41:00;40.33;;;22.45;;
21777;SDS011;11050;52.222;20.916;2024-03-02T11:43:30;41.10;;;24.00;;
21777;SDS011;11050;52.222;20.916;2024-03-02T11:45:58;49.75;;;24.35;;
21777;SDS011;11050;52.222;20.916;2024-03-02T11:48:25;41.15;;;24.58;;
21777;SDS011;11050;52.222;20.916;2024-03-02T11:50:52;40.92;;;23.23;;
21777;SDS011;11050;52.222;20.916;2024-03-02T11:53:19;45.03;;;25.05;;
21777;SDS011;11050;52.222;20.916;2024-03-02T11:55:46;42.28;;;24.50;;
21777;SDS011;11050;52.222;20.916;2024-03-02T11:58:12;45.47;;;26.27;;
21777;SDS011;11050;52.222;20.916;2024-03-02T12:00:45;41.92;;;24.65;;
21777;SDS011;11050;52.222;20.916;2024-03-02T12:03:12;44.15;;;25.27;;
21777;SDS011;11050;52.222;20.916;2024-03-02T12:05:40;45.50;;;25.92;;
21777;SDS011;11050;52.222;20.916;2024-03-02T12:08:07;46.58;;;27.10;;
21777;SDS011;11050;52.222;20.916;2024-03-02T12:10:34;43.65;;;26.85;;
21777;SDS011;11050;52.222;20.916;2024-03-02T12:13:02;41.45;;;27.25;;
21777;SDS011;11050;52.222;20.916;2024-03-02T12:15:36;43.90;;;26.83;;
21777;SDS011;11050;52.222;20.916;2024-03-02T12:18:04;47.72;;;27.48;;
21777;SDS011;11050;52.222;20.916;2024-03-02T12:20:31;43.08;;;27.65;;
21777;SDS011;11050;52.222;20.916;2024-03-02T12:22:59;47.00;;;27.77;;
21777;SDS011;11050;52.222;20.916;2024-03-02T12:25:27;45.20;;;28.67;;
21777;SDS011;11050;52.222;20.916;2024-03-02T12:27:56;49.13;;;29.85;;
21777;SDS011;11050;52.222;20.916;2024-03-02T12:30:26;45.72;;;28.15;;
21777;SDS011;11050;52.222;20.916;2024-03-02T12:32:54;53.20;;;30.58;;
21777;SDS011;11050;52.222;20.916;2024-03-02T12:35:21;50.53;;;30.17;;
21777;SDS011;11050;52.222;20.916;2024-03-02T12:37:51;46.38;;;29.98;;
21777;SDS011;11050;52.222;20.916;2024-03-02T12:40:19;48.88;;;30.50;;
21777;SDS011;11050;52.222;20.916;2024-03-02T12:42:47;51.17;;;31.40;;
21777;SDS011;11050;52.222;20.916;2024-03-02T12:45:15;47.38;;;30.80;;
21777;SDS011;11050;52.222;20.916;2024-03-02T12:47:41;52.83;;;31.45;;
21777;SDS011;11050;52.222;20.916;2024-03-02T12:50:08;50.92;;;31.35;;
21777;SDS011;11050;52.222;20.916;2024-03-02T12:52:35;49.38;;;30.27;;
21777;SDS011;11050;52.222;20.916;2024-03-02T12:55:01;51.65;;;30.42;;
21777;SDS011;11050;52.222;20.916;2024-03-02T12:57:31;49.95;;;30.70;;
21777;SDS011;11050;52.222;20.916;2024-03-02T13:02:34;49.38;;;31.77;;
21777;SDS011;11050;52.222;20.916;2024-03-02T13:05:02;47.35;;;30.45;;
21777;SDS011;11050;52.222;20.916;2024-03-02T13:07:28;48.50;;;28.35;;
21777;SDS011;11050;52.222;20.916;2024-03-02T13:09:55;45.83;;;29.65;;
21777;SDS011;11050;52.222;20.916;2024-03-02T13:12:21;50.17;;;29.35;;
21777;SDS011;11050;52.222;20.916;2024-03-02T13:14:52;44.08;;;29.27;;
21777;SDS011;11050;52.222;20.916;2024-03-02T13:17:21;46.33;;;29.95;;
21777;SDS011;11050;52.222;20.916;2024-03-02T13:19:50;46.22;;;27.60;;
21777;SDS011;11050;52.222;20.916;2024-03-02T13:22:25;46.63;;;28.35;;
21777;SDS011;11050;52.222;20.916;2024-03-02T13:24:52;43.20;;;28.55;;
21777;SDS011;11050;52.222;20.916;2024-03-02T13:27:19;48.35;;;30.63;;
21777;SDS011;11050;52.222;20.916;2024-03-02T13:29:48;45.80;;;28.48;;
21777;SDS011;11050;52.222;20.916;2024-03-02T13:32:14;48.90;;;30.15;;
21777;SDS011;11050;52.222;20.916;2024-03-02T13:34:42;50.95;;;29.65;;
21777;SDS011;11050;52.222;20.916;2024-03-02T13:37:08;43.15;;;27.90;;
21777;SDS011;11050;52.222;20.916;2024-03-02T13:39:34;48.78;;;29.63;;
21777;SDS011;11050;52.222;20.916;2024-03-02T13:42:07;48.45;;;29.42;;
21777;SDS011;11050;52.222;20.916;2024-03-02T13:44:33;49.55;;;28.58;;
21777;SDS011;11050;52.222;20.916;2024-03-02T13:47:02;44.42;;;29.17;;
21777;SDS011;11050;52.222;20.916;2024-03-02T13:49:29;53.15;;;30.05;;
21777;SDS011;11050;52.222;20.916;2024-03-02T13:52:08;42.78;;;29.48;;
21777;SDS011;11050;52.222;20.916;2024-03-02T13:54:41;48.28;;;29.33;;
21777;SDS011;11050;52.222;20.916;2024-03-02T13:57:09;45.78;;;30.40;;
21777;SDS011;11050;52.222;20.916;2024-03-02T13:59:37;47.38;;;29.17;;
21777;SDS011;11050;52.222;20.916;2024-03-02T14:02:04;51.88;;;29.73;;
21777;SDS011;11050;52.222;20.916;2024-03-02T14:04:31;53.47;;;30.38;;
21777;SDS011;11050;52.222;20.916;2024-03-02T14:06:58;55.53;;;30.70;;
21777;SDS011;11050;52.222;20.916;2024-03-02T14:09:24;46.38;;;30.38;;
21777;SDS011;11050;52.222;20.916;2024-03-02T14:11:51;47.63;;;30.52;;
21777;SDS011;11050;52.222;20.916;2024-03-02T14:14:17;54.83;;;31.25;;
21777;SDS011;11050;52.222;20.916;2024-03-02T14:16:43;49.70;;;30.33;;